Time;durP1;ratioP1;P1;durP2;ratioP2;P2;SDS_P1;SDS_P2;PMS_P1;PMS_P2;Temp;Humidity;BMP_temperature;BMP_pressure;BME280_temperature;BME280_humidity;BME280_pressure;Samples;Min_cycle;Max_cycle;Signal;HPM_P1;HPM_P2
2023/08/12 00:00:29;;;;;;;17.37;16.13;;;17.70;99.90;;;;;;5038751;28;20262;-54
2023/08/12 00:02:55;;;;;;;16.40;15.40;;;17.70;99.90;;;;;;5035900;28;20935;-54
2023/08/12 00:05:21;;;;;;;16.97;15.97;;;17.70;99.90;;;;;;5037773;28;20673;-55
2023/08/12 00:07:47;;;;;;;17.27;15.97;;;17.70;99.90;;;;;;5040961;28;20591;-54
2023/08/12 00:10:13;;;;;;;18.33;17.00;;;17.60;99.90;;;;;;5042908;28;20720;-53
2023/08/12 00:12:39;;;;;;;17.20;16.20;;;17.60;99.90;;;;;;5041540;28;20450;-54
2023/08/12 00:15:07;;;;;;;17.67;16.47;;;17.60;99.90;;;;;;5042465;28;20616;-53
2023/08/12 00:17:34;;;;;;;17.23;16.00;;;17.60;99.90;;;;;;5041327;28;20432;-54
2023/08/12 00:20:00;;;;;;;17.87;16.67;;;17.60;99.90;;;;;;5041424;28;20526;-51
2023/08/12 00:22:26;;;;;;;17.37;16.27;;;17.60;99.90;;;;;;5024212;28;20452;-53
2023/08/12 00:24:52;;;;;;;17.57;16.47;;;17.60;99.90;;;;;;5006981;28;20539;-50
2023/08/12 00:27:18;;;;;;;17.23;15.93;;;17.60;99.90;;;;;;5002812;28;20234;-55
2023/08/12 00:29:43;;;;;;;18.40;17.20;;;17.60;99.90;;;;;;5001812;28;20900;-54
2023/08/12 00:32:09;;;;;;;16.60;15.40;;;17.50;99.90;;;;;;5002193;28;20499;-50
2023/08/12 00:34:35;;;;;;;17.10;16.00;;;17.50;99.90;;;;;;4999636;28;20595;-55
2023/08/12 00:37:01;;;;;;;16.70;15.70;;;17.50;99.90;;;;;;5003573;28;20194;-50
2023/08/12 00:39:27;;;;;;;16.53;15.53;;;17.50;99.90;;;;;;5002564;28;21147;-55
2023/08/12 00:41:52;;;;;;;17.87;16.67;;;17.40;99.90;;;;;;5002208;28;20190;-50
2023/08/12 00:44:18;;;;;;;17.03;16.03;;;17.40;99.90;;;;;;5001154;28;20543;-54
2023/08/12 00:46:44;;;;;;;17.87;16.40;;;17.40;99.90;;;;;;5002579;28;20441;-52
2023/08/12 00:49:11;;;;;;;17.23;16.23;;;17.40;99.90;;;;;;5002300;28;20191;-55
2023/08/12 00:51:41;;;;;;;16.83;15.67;;;17.40;99.90;;;;;;5002346;28;20260;-47
2023/08/12 00:54:08;;;;;;;16.80;15.30;;;17.40;99.90;;;;;;5000722;28;20442;-54
2023/08/12 00:56:35;;;;;;;17.10;16.10;;;17.40;99.90;;;;;;5003071;28;20436;-53
2023/08/12 00:59:03;;;;;;;16.63;15.63;;;17.30;99.90;;;;;;5001930;28;20464;-55
2023/08/12 01:01:29;;;;;;;17.30;16.30;;;17.30;99.90;;;;;;5001524;28;20496;-53
2023/08/12 01:03:56;;;;;;;16.10;15.20;;;17.30;99.90;;;;;;5000297;28;21474;-55
2023/08/12 01:06:21;;;;;;;17.17;16.07;;;17.30;99.90;;;;;;5000726;28;20438;-54
2023/08/12 01:08:47;;;;;;;17.83;16.63;;;17.30;99.90;;;;;;5000071;28;20450;-55
2023/08/12 01:11:21;;;;;;;17.67;16.47;;;17.30;99.90;;;;;;5001332;28;20189;-55
2023/08/12 01:14:01;;;;;;;17.13;16.13;;;17.30;99.90;;;;;;4999762;28;20179;-52
2023/08/12 01:16:31;;;;;;;17.03;15.90;;;17.30;99.90;;;;;;5001070;28;20430;-40
2023/08/12 01:18:58;;;;;;;16.80;15.80;;;17.30;99.90;;;;;;5001475;28;20471;-40
2023/08/12 01:21:26;;;;;;;16.80;15.80;;;17.30;99.90;;;;;;5001271;28;21329;-41
2023/08/12 01:23:52;;;;;;;16.97;16.03;;;17.30;99.90;;;;;;5009433;28;20467;-41
2023/08/12 01:26:18;;;;;;;17.33;16.03;;;17.30;99.90;;;;;;5041337;28;20434;-42
2023/08/12 01:28:43;;;;;;;17.00;16.00;;;17.30;99.90;;;;;;5042023;28;20404;-42
2023/08/12 01:31:15;;;;;;;16.73;15.80;;;17.30;99.90;;;;;;5041340;28;20186;-41
2023/08/12 01:33:51;;;;;;;16.93;15.93;;;17.30;99.90;;;;;;5038541;28;20235;-40
2023/08/12 01:36:19;;;;;;;17.23;16.13;;;17.30;99.90;;;;;;5038963;28;20434;-41
2023/08/12 01:38:47;;;;;;;17.60;16.60;;;17.30;99.90;;;;;;5041800;28;20411;-42
2023/08/12 01:41:14;;;;;;;17.20;16.20;;;17.30;99.90;;;;;;5039849;28;20932;-41
2023/08/12 01:43:40;;;;;;;17.67;16.40;;;17.30;99.90;;;;;;5039389;28;21269;-41
2023/08/12 01:46:06;;;;;;;16.73;15.73;;;17.30;99.90;;;;;;5040875;28;20447;-41
2023/08/12 01:48:32;;;;;;;16.50;15.60;;;17.30;99.90;;;;;;5038570;28;21006;-43
2023/08/12 01:50:57;;;;;;;16.67;15.73;;;17.30;99.90;;;;;;5041042;28;20455;-40
2023/08/12 01:53:23;;;;;;;16.40;15.40;;;17.20;99.90;;;;;;5039812;28;20273;-43
2023/08/12 01:55:50;;;;;;;17.03;15.93;;;17.30;99.90;;;;;;5016650;28;20190;-43
2023/08/12 01:58:15;;;;;;;16.67;15.67;;;17.30;99.90;;;;;;5041648;28;20236;-41
2023/08/12 02:00:41;;;;;;;17.50;16.40;;;17.30;99.90;;;;;;5040081;28;20463;-43
2023/08/12 02:03:07;;;;;;;16.73;15.80;;;17.30;99.90;;;;;;5038201;28;20656;-42
2023/08/12 02:05:33;;;;;;;17.47;16.37;;;17.30;99.90;;;;;;5040729;28;20195;-45
2023/08/12 02:07:58;;;;;;;17.53;16.43;;;17.30;99.90;;;;;;5039973;28;20312;-41
2023/08/12 02:10:24;;;;;;;17.43;16.33;;;17.30;99.90;;;;;;5040327;28;20835;-41
2023/08/12 02:12:50;;;;;;;17.13;16.10;;;17.30;99.90;;;;;;5040114;28;21204;-40
2023/08/12 02:15:15;;;;;;;17.73;16.67;;;17.30;99.90;;;;;;5039252;28;20210;-40
2023/08/12 02:17:41;;;;;;;16.83;15.90;;;17.30;99.90;;;;;;5040162;28;20219;-41
2023/08/12 02:20:07;;;;;;;16.53;15.53;;;17.30;99.90;;;;;;5039677;28;20242;-42
2023/08/12 02:22:32;;;;;;;16.23;15.17;;;17.30;99.90;;;;;;5038810;28;20273;-41
2023/08/12 02:24:58;;;;;;;15.63;14.63;;;17.20;99.90;;;;;;5039256;28;20971;-40
2023/08/12 02:27:24;;;;;;;16.73;15.73;;;17.20;99.90;;;;;;5040949;28;20891;-40
2023/08/12 02:29:49;;;;;;;17.60;16.10;;;17.30;99.90;;;;;;5039486;28;20185;-44
2023/08/12 02:32:15;;;;;;;16.50;15.50;;;17.20;99.90;;;;;;5039295;28;20189;-40
2023/08/12 02:34:40;;;;;;;17.33;16.10;;;17.20;99.90;;;;;;5036392;28;20178;-47
2023/08/12 02:37:06;;;;;;;17.43;16.33;;;17.20;99.90;;;;;;5040345;28;20809;-42
2023/08/12 02:39:32;;;;;;;17.43;16.30;;;17.20;99.90;;;;;;5038747;28;20185;-43
2023/08/12 02:41:57;;;;;;;16.70;15.70;;;17.20;99.90;;;;;;5038722;28;20182;-40
2023/08/12 02:44:23;;;;;;;17.13;16.13;;;17.20;99.90;;;;;;5039117;28;20220;-41
2023/08/12 02:46:48;;;;;;;16.77;15.67;;;17.10;99.90;;;;;;5039713;28;20564;-40
2023/08/12 02:49:14;;;;;;;16.57;15.57;;;17.10;99.90;;;;;;5040493;28;20181;-40
2023/08/12 02:51:39;;;;;;;16.90;15.90;;;17.10;99.90;;;;;;5039911;28;20268;-44
2023/08/12 02:54:05;;;;;;;17.20;16.10;;;17.10;99.90;;;;;;5018963;28;20772;-40
2023/08/12 02:56:31;;;;;;;17.70;16.43;;;17.10;99.90;;;;;;5038103;28;20842;-40
2023/08/12 02:58:56;;;;;;;17.50;16.40;;;17.10;99.90;;;;;;5039641;28;20323;-40
2023/08/12 03:01:22;;;;;;;17.13;16.13;;;17.10;99.90;;;;;;5038458;28;20538;-42
2023/08/12 03:03:47;;;;;;;16.77;15.67;;;17.10;99.90;;;;;;5037957;28;20190;-41
2023/08/12 03:06:13;;;;;;;17.30;16.10;;;17.10;99.90;;;;;;5039013;28;20543;-40
2023/08/12 03:08:39;;;;;;;17.00;16.00;;;17.00;99.90;;;;;;5039176;28;20272;-41
2023/08/12 03:11:04;;;;;;;17.67;16.57;;;17.00;99.90;;;;;;5039206;28;20186;-40
2023/08/12 03:13:30;;;;;;;16.97;15.97;;;17.10;99.90;;;;;;5036430;28;21244;-41
2023/08/12 03:15:56;;;;;;;17.40;16.20;;;17.00;99.90;;;;;;5037716;28;20224;-40
2023/08/12 03:18:22;;;;;;;16.30;15.30;;;17.00;99.90;;;;;;5038889;28;20248;-42
2023/08/12 03:20:47;;;;;;;16.83;15.73;;;17.00;99.90;;;;;;5038543;28;20207;-41
2023/08/12 03:23:13;;;;;;;16.50;15.50;;;17.00;99.90;;;;;;5036820;28;20465;-41
2023/08/12 03:25:39;;;;;;;17.30;16.30;;;17.00;99.90;;;;;;5036685;28;20221;-41
2023/08/12 03:28:04;;;;;;;18.00;16.90;;;17.00;99.90;;;;;;5039251;28;20552;-40
2023/08/12 03:30:31;;;;;;;17.90;16.80;;;17.00;99.90;;;;;;5038981;28;20200;-43
2023/08/12 03:32:56;;;;;;;17.67;16.57;;;16.90;99.90;;;;;;5037865;28;20343;-40
2023/08/12 03:35:22;;;;;;;17.23;16.10;;;16.90;99.90;;;;;;5039360;28;20436;-40
2023/08/12 03:37:47;;;;;;;17.77;16.67;;;16.90;99.90;;;;;;5038736;28;20193;-41
2023/08/12 03:40:13;;;;;;;17.73;16.43;;;16.90;99.90;;;;;;5039384;28;20290;-43
2023/08/12 03:42:38;;;;;;;17.63;16.63;;;16.90;99.90;;;;;;5037613;28;20673;-44
2023/08/12 03:45:04;;;;;;;18.70;17.40;;;16.80;99.90;;;;;;5039960;28;20199;-45
2023/08/12 03:47:30;;;;;;;17.90;16.80;;;16.80;99.90;;;;;;5043620;28;20193;-41
2023/08/12 03:49:56;;;;;;;17.90;16.70;;;16.80;99.90;;;;;;5043107;28;20443;-41
2023/08/12 03:52:22;;;;;;;17.47;16.47;;;16.80;99.90;;;;;;5041523;28;20201;-41
2023/08/12 03:54:47;;;;;;;17.00;15.90;;;16.80;99.90;;;;;;5041268;28;20490;-41
2023/08/12 03:57:13;;;;;;;17.27;15.93;;;16.80;99.90;;;;;;5043514;28;20724;-40
2023/08/12 03:59:39;;;;;;;17.40;16.30;;;16.80;99.90;;;;;;5041429;28;20255;-41
2023/08/12 04:02:04;;;;;;;17.97;16.80;;;16.80;99.90;;;;;;5040549;28;20182;-41
2023/08/12 04:04:30;;;;;;;17.57;16.10;;;16.80;99.90;;;;;;5041573;28;20704;-43
2023/08/12 04:06:55;;;;;;;16.87;15.87;;;16.80;99.90;;;;;;5042328;28;20186;-40
2023/08/12 04:09:21;;;;;;;17.57;16.47;;;16.80;99.90;;;;;;5021630;28;20636;-39
2023/08/12 04:11:47;;;;;;;17.40;16.10;;;16.80;99.90;;;;;;5036978;28;20200;-42
2023/08/12 04:14:13;;;;;;;17.07;16.07;;;16.90;99.90;;;;;;5040501;28;20208;-46
2023/08/12 04:16:41;;;;;;;17.03;16.03;;;16.90;99.90;;;;;;5043160;28;20641;-42
2023/08/12 04:19:06;;;;;;;16.50;15.50;;;16.90;99.90;;;;;;5042236;28;20827;-41
2023/08/12 04:21:32;;;;;;;16.20;15.20;;;17.00;99.90;;;;;;5039786;28;20475;-40
2023/08/12 04:23:58;;;;;;;16.93;15.83;;;17.00;99.90;;;;;;5042223;28;20229;-44
2023/08/12 04:26:23;;;;;;;17.47;16.27;;;17.00;99.90;;;;;;5041948;28;20190;-41
2023/08/12 04:28:49;;;;;;;16.60;15.60;;;17.10;99.90;;;;;;5042293;28;20201;-52
2023/08/12 04:31:14;;;;;;;17.00;15.90;;;17.10;99.90;;;;;;5040815;28;20697;-51
2023/08/12 04:33:40;;;;;;;17.33;16.23;;;17.20;99.90;;;;;;5040438;28;20226;-53
2023/08/12 04:36:06;;;;;;;16.83;15.60;;;17.20;99.90;;;;;;5042992;28;21301;-52
2023/08/12 04:38:31;;;;;;;16.63;15.53;;;17.20;99.90;;;;;;5042356;28;20219;-51
2023/08/12 04:40:57;;;;;;;16.37;15.47;;;17.30;99.90;;;;;;5019285;28;20476;-52
2023/08/12 04:43:23;;;;;;;17.23;15.97;;;17.30;99.90;;;;;;5040892;28;20217;-54
2023/08/12 04:45:48;;;;;;;16.23;15.10;;;17.40;99.90;;;;;;5042375;28;20202;-53
2023/08/12 04:48:14;;;;;;;15.93;14.93;;;17.50;99.90;;;;;;5040806;28;20197;-51
2023/08/12 04:50:42;;;;;;;16.63;15.53;;;17.60;99.90;;;;;;5042032;28;20205;-54
2023/08/12 04:53:07;;;;;;;16.10;15.00;;;17.60;99.90;;;;;;5041966;28;20431;-50
2023/08/12 04:55:35;;;;;;;16.30;15.20;;;17.60;99.90;;;;;;5042435;28;20478;-49
2023/08/12 04:58:02;;;;;;;16.60;15.60;;;17.70;99.90;;;;;;5022145;28;20197;-55
2023/08/12 05:00:28;;;;;;;15.13;14.30;;;17.80;99.90;;;;;;5021466;28;20469;-54
2023/08/12 05:02:53;;;;;;;17.03;15.73;;;17.80;99.90;;;;;;5041040;28;20439;-51
2023/08/12 05:05:19;;;;;;;16.03;15.10;;;17.90;99.90;;;;;;5039910;28;20439;-51
2023/08/12 05:07:48;;;;;;;15.60;14.70;;;18.00;99.90;;;;;;5038283;28;20215;-50
2023/08/12 05:10:16;;;;;;;15.30;14.33;;;18.00;99.90;;;;;;5039984;28;20186;-55
2023/08/12 05:12:47;;;;;;;15.43;14.57;;;18.10;99.90;;;;;;5040779;28;20527;-54
2023/08/12 05:15:12;;;;;;;16.30;15.30;;;18.10;99.90;;;;;;5039960;28;20527;-52
2023/08/12 05:17:38;;;;;;;15.70;14.80;;;18.20;99.90;;;;;;5040395;28;20808;-54
2023/08/12 05:20:04;;;;;;;15.40;14.50;;;18.30;99.90;;;;;;5040931;28;20222;-54
2023/08/12 05:22:30;;;;;;;15.63;14.53;;;18.40;99.90;;;;;;5040654;28;20269;-54
2023/08/12 05:24:55;;;;;;;15.90;14.87;;;18.50;99.90;;;;;;5039033;28;20482;-43
2023/08/12 05:27:21;;;;;;;16.10;15.10;;;18.60;99.90;;;;;;5041321;28;20900;-47
2023/08/12 05:29:47;;;;;;;15.20;14.20;;;18.70;99.90;;;;;;5039241;28;20566;-57
2023/08/12 05:32:12;;;;;;;15.53;14.63;;;18.80;99.90;;;;;;5040517;28;20212;-51
2023/08/12 05:34:38;;;;;;;15.60;14.80;;;18.90;99.90;;;;;;5041950;28;21048;-54
2023/08/12 05:37:03;;;;;;;15.43;14.57;;;19.00;99.90;;;;;;5022737;28;20205;-54
2023/08/12 05:39:29;;;;;;;15.17;14.23;;;19.10;99.90;;;;;;5041283;28;21078;-53
2023/08/12 05:41:55;;;;;;;16.63;15.43;;;19.30;99.90;;;;;;5022427;28;20190;-53
2023/08/12 05:44:20;;;;;;;15.57;14.67;;;19.40;99.90;;;;;;5041198;28;20194;-50
2023/08/12 05:46:46;;;;;;;15.70;14.70;;;19.50;99.90;;;;;;5042316;28;20784;-54
2023/08/12 05:49:11;;;;;;;15.20;14.40;;;19.60;99.90;;;;;;5023171;28;20309;-55
2023/08/12 05:51:38;;;;;;;15.90;14.73;;;19.80;99.90;;;;;;5040564;28;20213;-52
2023/08/12 05:54:04;;;;;;;15.20;14.20;;;19.80;99.90;;;;;;5039552;28;20582;-52
2023/08/12 05:56:30;;;;;;;15.70;14.80;;;20.00;99.90;;;;;;5040684;28;20543;-51
2023/08/12 05:58:56;;;;;;;15.23;14.33;;;20.00;99.90;;;;;;5040696;28;20450;-55
2023/08/12 06:01:21;;;;;;;15.07;14.10;;;20.10;99.90;;;;;;5039950;28;20774;-50
2023/08/12 06:03:47;;;;;;;15.77;14.77;;;20.20;99.90;;;;;;5038722;28;20200;-53
2023/08/12 06:06:12;;;;;;;15.83;14.83;;;20.30;99.90;;;;;;5015433;28;20193;-53
2023/08/12 06:08:38;;;;;;;15.43;14.43;;;20.40;99.90;;;;;;5038959;28;20205;-50
2023/08/12 06:11:04;;;;;;;15.10;14.30;;;20.50;99.90;;;;;;5037706;28;20197;-50
2023/08/12 06:13:29;;;;;;;16.03;14.67;;;20.60;99.90;;;;;;5021855;28;20553;-54
2023/08/12 06:15:55;;;;;;;15.30;14.50;;;20.70;99.90;;;;;;5038873;28;20235;-55
2023/08/12 06:18:20;;;;;;;14.30;13.50;;;20.80;99.90;;;;;;5054925;28;20277;-53
2023/08/12 06:20:46;;;;;;;15.57;14.53;;;20.80;99.90;;;;;;5022187;28;20205;-51
2023/08/12 06:23:12;;;;;;;14.87;14.07;;;20.90;99.90;;;;;;5038091;28;20181;-51
2023/08/12 06:25:38;;;;;;;15.10;14.10;;;20.90;99.90;;;;;;5037608;28;20272;-54
2023/08/12 06:28:04;;;;;;;14.90;14.00;;;21.00;99.90;;;;;;5037692;28;20468;-54
2023/08/12 06:30:30;;;;;;;15.33;14.43;;;21.10;99.90;;;;;;5039797;28;20196;-54
2023/08/12 06:32:56;;;;;;;15.27;14.47;;;21.20;99.90;;;;;;5039828;28;20463;-53
2023/08/12 06:35:21;;;;;;;15.90;14.43;;;21.40;99.90;;;;;;5037391;28;20436;-51
2023/08/12 06:37:47;;;;;;;14.87;14.07;;;21.50;99.90;;;;;;5038780;28;20197;-49
2023/08/12 06:40:12;;;;;;;15.67;14.77;;;21.60;99.90;;;;;;5040565;28;20270;-50
2023/08/12 06:42:38;;;;;;;13.90;13.10;;;21.60;99.90;;;;;;5040574;28;20572;-52
2023/08/12 06:45:04;;;;;;;14.83;13.93;;;21.80;99.90;;;;;;5037991;28;20189;-55
2023/08/12 06:47:30;;;;;;;14.03;13.33;;;21.90;99.90;;;;;;5037742;28;20539;-51
2023/08/12 06:49:56;;;;;;;15.50;14.40;;;22.10;99.90;;;;;;5038570;28;20432;-52
2023/08/12 06:52:21;;;;;;;15.53;14.67;;;22.20;99.80;;;;;;5040169;28;20914;-50
2023/08/12 06:54:47;;;;;;;15.03;14.03;;;22.20;99.10;;;;;;5039733;28;20197;-50
2023/08/12 06:57:13;;;;;;;15.23;14.33;;;22.30;99.30;;;;;;5039044;28;20371;-51
2023/08/12 06:59:39;;;;;;;15.10;14.20;;;22.20;98.80;;;;;;5039233;28;20199;-50
2023/08/12 07:02:06;;;;;;;14.70;13.90;;;22.20;98.80;;;;;;5039274;28;20186;-51
2023/08/12 07:04:32;;;;;;;14.13;13.33;;;22.20;98.80;;;;;;5037877;28;20472;-50
2023/08/12 07:06:57;;;;;;;14.73;13.93;;;22.20;98.70;;;;;;5038573;28;20524;-53
2023/08/12 07:09:23;;;;;;;15.63;14.73;;;22.20;98.80;;;;;;5040727;28;20189;-51
2023/08/12 07:11:48;;;;;;;16.00;15.00;;;22.30;98.90;;;;;;5039276;28;20965;-52
2023/08/12 07:14:14;;;;;;;15.70;14.80;;;22.40;99.10;;;;;;5039362;28;20178;-51
2023/08/12 07:16:40;;;;;;;14.80;13.90;;;22.50;98.90;;;;;;5020855;28;20189;-54
2023/08/12 07:19:05;;;;;;;15.17;14.27;;;22.50;98.60;;;;;;5032158;28;20190;-54
2023/08/12 07:21:31;;;;;;;14.93;14.03;;;22.60;98.70;;;;;;5025004;28;20210;-57
2023/08/12 07:23:57;;;;;;;14.87;13.93;;;22.60;98.70;;;;;;5031679;28;20282;-54
2023/08/12 07:26:22;;;;;;;14.60;13.80;;;22.70;98.40;;;;;;5033429;28;20247;-55
2023/08/12 07:28:48;;;;;;;16.17;15.17;;;22.70;98.40;;;;;;5039407;28;20178;-56
2023/08/12 07:31:17;;;;;;;15.33;14.43;;;22.80;98.30;;;;;;5038163;28;20189;-56
2023/08/12 07:33:42;;;;;;;14.60;13.90;;;22.90;98.30;;;;;;5018076;28;20668;-51
2023/08/12 07:36:08;;;;;;;15.83;15.03;;;23.10;98.30;;;;;;5034003;28;20489;-53
2023/08/12 07:38:34;;;;;;;14.47;13.67;;;23.20;98.10;;;;;;5038099;28;20590;-54
2023/08/12 07:41:00;;;;;;;15.90;14.93;;;23.40;97.50;;;;;;5038913;28;20240;-52
2023/08/12 07:43:26;;;;;;;15.07;14.27;;;23.50;97.50;;;;;;5035629;28;20798;-54
2023/08/12 07:45:52;;;;;;;15.03;14.23;;;23.70;97.10;;;;;;5036670;28;20427;-50
2023/08/12 07:48:19;;;;;;;15.20;14.30;;;23.80;96.90;;;;;;5039479;28;20198;-52
2023/08/12 07:50:44;;;;;;;15.47;14.63;;;23.90;96.80;;;;;;5035836;28;20436;-51
2023/08/12 07:53:10;;;;;;;15.60;14.80;;;24.00;96.60;;;;;;5036744;28;20442;-50
2023/08/12 07:55:35;;;;;;;15.07;14.27;;;24.10;96.30;;;;;;5036228;28;20194;-53
2023/08/12 07:58:01;;;;;;;16.40;15.50;;;24.20;95.90;;;;;;5014199;28;20184;-52
2023/08/12 08:00:27;;;;;;;15.00;14.10;;;24.40;95.70;;;;;;5018450;28;20714;-44
2023/08/12 08:02:52;;;;;;;16.27;15.20;;;24.50;95.80;;;;;;5035465;28;20308;-41
2023/08/12 08:05:18;;;;;;;14.90;14.10;;;24.60;95.40;;;;;;5036929;28;20174;-41
2023/08/12 08:07:44;;;;;;;14.40;13.60;;;24.70;95.50;;;;;;5036926;28;20185;-44
2023/08/12 08:10:10;;;;;;;13.83;12.93;;;24.80;94.80;;;;;;5037627;28;20438;-47
2023/08/12 08:12:36;;;;;;;14.60;13.90;;;25.00;94.90;;;;;;5036790;28;20212;-47
2023/08/12 08:15:03;;;;;;;15.60;14.73;;;25.10;93.90;;;;;;5008613;28;20431;-46
2023/08/12 08:17:28;;;;;;;15.40;14.60;;;25.20;93.90;;;;;;5035946;28;20219;-43
2023/08/12 08:19:54;;;;;;;15.10;14.30;;;25.40;93.60;;;;;;5037207;28;20497;-44
2023/08/12 08:22:20;;;;;;;14.87;14.07;;;25.60;93.30;;;;;;5036093;28;20177;-42
2023/08/12 08:24:45;;;;;;;14.60;13.90;;;25.70;93.00;;;;;;5033384;28;20233;-53
2023/08/12 08:27:11;;;;;;;15.33;14.53;;;25.90;92.20;;;;;;5035255;28;20281;-54
2023/08/12 08:29:36;;;;;;;14.87;14.07;;;26.10;91.60;;;;;;5035983;28;20170;-54
2023/08/12 08:32:02;;;;;;;14.83;14.07;;;26.20;91.50;;;;;;5037931;28;20196;-43
2023/08/12 08:34:28;;;;;;;14.10;13.40;;;26.40;91.20;;;;;;5036695;28;20240;-44
2023/08/12 08:36:54;;;;;;;15.20;14.30;;;26.60;90.80;;;;;;5037416;28;20182;-41
2023/08/12 08:39:19;;;;;;;14.93;14.13;;;26.80;89.70;;;;;;5042419;28;20188;-42
2023/08/12 08:41:48;;;;;;;14.00;13.30;;;27.00;89.20;;;;;;5042749;28;20900;-41
2023/08/12 08:44:15;;;;;;;14.50;13.80;;;27.20;88.70;;;;;;5039977;28;20276;-42
2023/08/12 08:46:43;;;;;;;14.50;13.60;;;27.20;87.00;;;;;;5040428;28;20786;-42
2023/08/12 08:49:10;;;;;;;14.80;13.80;;;27.30;86.20;;;;;;5036779;28;20715;-42
2023/08/12 08:51:35;;;;;;;13.63;12.90;;;27.40;85.60;;;;;;5037998;28;20513;-42
2023/08/12 08:54:04;;;;;;;15.50;14.50;;;27.60;84.30;;;;;;5038767;28;20559;-46
2023/08/12 08:56:32;;;;;;;14.77;13.97;;;27.70;83.60;;;;;;5039603;28;20273;-42
2023/08/12 08:58:58;;;;;;;15.03;14.03;;;27.80;83.20;;;;;;5038646;28;20850;-41
2023/08/12 09:01:25;;;;;;;13.87;13.17;;;27.90;83.40;;;;;;5040449;28;20471;-45
2023/08/12 09:03:54;;;;;;;14.83;14.03;;;28.10;82.20;;;;;;5038662;28;20612;-43
2023/08/12 09:06:24;;;;;;;14.47;13.67;;;28.20;82.10;;;;;;5040653;28;20445;-48
2023/08/12 09:08:52;;;;;;;14.53;13.83;;;28.40;80.50;;;;;;5040527;28;20949;-45
2023/08/12 09:11:18;;;;;;;14.90;14.03;;;28.50;80.20;;;;;;5038738;28;20493;-44
2023/08/12 09:13:45;;;;;;;14.37;13.57;;;28.50;77.00;;;;;;5021705;28;20529;-45
2023/08/12 09:16:11;;;;;;;14.17;13.47;;;28.60;76.80;;;;;;5022013;28;20450;-43
2023/08/12 09:18:37;;;;;;;13.87;13.17;;;28.70;77.20;;;;;;5039152;28;20513;-44
2023/08/12 09:21:03;;;;;;;13.73;13.10;;;29.00;76.60;;;;;;5039358;28;20216;-45
2023/08/12 09:23:35;;;;;;;14.17;13.47;;;29.20;75.90;;;;;;5041166;28;20440;-42
2023/08/12 09:26:01;;;;;;;13.53;12.93;;;29.40;72.50;;;;;;5040607;28;20771;-45
2023/08/12 09:28:27;;;;;;;14.30;13.60;;;29.60;73.70;;;;;;5039378;28;20424;-45
2023/08/12 09:30:52;;;;;;;13.47;12.77;;;29.80;71.90;;;;;;5040377;28;20436;-45
2023/08/12 09:33:25;;;;;;;13.47;12.77;;;30.10;71.10;;;;;;5041150;28;20182;-46
2023/08/12 09:35:51;;;;;;;13.13;12.53;;;30.30;69.40;;;;;;5041094;28;20585;-46
2023/08/12 09:38:17;;;;;;;13.90;13.30;;;30.60;65.60;;;;;;5040565;28;20432;-43
2023/08/12 09:40:44;;;;;;;13.23;12.53;;;30.90;62.70;;;;;;5039065;28;20471;-41
2023/08/12 09:43:11;;;;;;;14.60;13.60;;;31.00;61.80;;;;;;5040500;28;20181;-44
2023/08/12 09:45:37;;;;;;;13.73;13.07;;;31.10;60.60;;;;;;5039031;28;20784;-42
2023/08/12 09:48:03;;;;;;;14.10;13.50;;;31.20;57.50;;;;;;5039554;28;20740;-44
2023/08/12 09:50:28;;;;;;;14.30;13.60;;;31.20;56.40;;;;;;5040919;28;20197;-43
2023/08/12 09:52:55;;;;;;;12.70;12.00;;;31.20;56.50;;;;;;5036902;28;20189;-42
2023/08/12 09:55:23;;;;;;;11.50;11.00;;;31.30;51.70;;;;;;5037153;28;20239;-43
2023/08/12 09:57:52;;;;;;;11.47;10.97;;;31.50;47.30;;;;;;5038847;28;20917;-44
2023/08/12 10:00:20;;;;;;;12.07;11.57;;;31.60;45.30;;;;;;5039927;28;21543;-44
2023/08/12 10:02:47;;;;;;;11.17;10.67;;;31.70;44.10;;;;;;5038629;28;20531;-44
2023/08/12 10:05:21;;;;;;;11.47;11.07;;;31.90;43.00;;;;;;5037758;28;20518;-40
2023/08/12 10:07:47;;;;;;;12.13;11.53;;;31.80;43.00;;;;;;5039615;28;20503;-42
2023/08/12 10:10:14;;;;;;;10.73;10.33;;;31.80;41.50;;;;;;5039598;28;20444;-44
2023/08/12 10:12:41;;;;;;;11.87;10.83;;;31.70;41.90;;;;;;5038544;28;20701;-44
2023/08/12 10:15:08;;;;;;;12.03;11.50;;;31.60;40.60;;;;;;5038797;28;20984;-47
2023/08/12 10:17:34;;;;;;;11.70;11.20;;;31.50;40.70;;;;;;5030164;28;20807;-43
2023/08/12 10:20:02;;;;;;;12.83;11.53;;;31.40;40.90;;;;;;5033657;28;21360;-45
2023/08/12 10:22:30;;;;;;;12.60;12.00;;;31.30;40.40;;;;;;5034827;28;20941;-44
2023/08/12 10:24:58;;;;;;;12.17;11.67;;;31.10;40.50;;;;;;5038761;28;20471;-44
2023/08/12 10:27:24;;;;;;;12.20;11.60;;;31.20;41.20;;;;;;5037041;28;20624;-46
2023/08/12 10:29:50;;;;;;;12.00;11.40;;;31.10;41.00;;;;;;5038191;28;20599;-44
2023/08/12 10:32:16;;;;;;;11.90;11.40;;;31.00;41.20;;;;;;5037487;28;20470;-47
2023/08/12 10:34:43;;;;;;;11.40;10.90;;;30.90;41.50;;;;;;5038372;28;20239;-42
2023/08/12 10:37:11;;;;;;;11.20;10.60;;;30.80;42.00;;;;;;5036017;28;20649;-42
2023/08/12 10:39:37;;;;;;;12.43;11.93;;;30.70;42.80;;;;;;5036741;28;20496;-42
2023/08/12 10:42:02;;;;;;;12.33;11.73;;;30.50;43.40;;;;;;5037196;28;20506;-42
2023/08/12 10:44:54;;;;;;;12.20;11.70;;;30.50;43.90;;;;;;5036758;28;20436;-44
2023/08/12 10:47:19;;;;;;;11.93;11.43;;;30.60;45.10;;;;;;5035981;28;20202;-43
2023/08/12 10:49:49;;;;;;;12.13;11.60;;;30.40;44.10;;;;;;5034868;28;20547;-43
2023/08/12 10:52:32;;;;;;;12.27;11.77;;;30.40;44.50;;;;;;5035997;28;20203;-41
2023/08/12 10:55:17;;;;;;;12.90;12.30;;;30.40;44.80;;;;;;5036594;28;20484;-42
2023/08/12 10:57:43;;;;;;;12.60;12.00;;;30.40;45.80;;;;;;5034948;28;20436;-42
2023/08/12 11:00:26;;;;;;;12.13;11.53;;;30.40;46.10;;;;;;5037676;28;20529;-46
2023/08/12 11:02:53;;;;;;;12.27;11.70;;;30.50;46.70;;;;;;5037315;28;20947;-45
2023/08/12 11:05:20;;;;;;;12.13;11.53;;;30.40;46.30;;;;;;5036971;28;20428;-45
2023/08/12 11:07:56;;;;;;;12.00;11.50;;;30.40;46.50;;;;;;5035143;28;21123;-46
2023/08/12 11:10:26;;;;;;;12.93;12.17;;;30.30;46.30;;;;;;5036579;28;20431;-45
2023/08/12 11:12:51;;;;;;;13.17;12.57;;;30.30;46.90;;;;;;5036397;28;20455;-45
2023/08/12 11:15:19;;;;;;;13.00;12.30;;;30.30;47.00;;;;;;5033986;28;20618;-42
2023/08/12 11:17:46;;;;;;;12.17;11.67;;;30.20;47.40;;;;;;5035918;28;20327;-44
2023/08/12 11:20:13;;;;;;;12.77;12.17;;;30.30;46.50;;;;;;5009978;28;20471;-44
2023/08/12 11:22:43;;;;;;;12.10;11.60;;;30.00;46.40;;;;;;5035415;28;20500;-46
2023/08/12 11:25:11;;;;;;;13.20;12.60;;;30.10;46.20;;;;;;5037094;28;20474;-46
2023/08/12 11:27:38;;;;;;;13.07;12.47;;;30.10;46.60;;;;;;5035679;28;20456;-45
2023/08/12 11:30:05;;;;;;;13.07;12.47;;;30.30;46.70;;;;;;5034231;28;20436;-46
2023/08/12 11:32:31;;;;;;;13.50;12.90;;;30.50;46.90;;;;;;5038260;28;20437;-45
2023/08/12 11:34:56;;;;;;;12.53;11.93;;;30.80;46.60;;;;;;5038416;28;20471;-48
2023/08/12 11:37:22;;;;;;;13.20;12.40;;;30.90;44.50;;;;;;5036561;28;20197;-47
2023/08/12 11:39:47;;;;;;;13.17;12.33;;;30.90;44.10;;;;;;5036154;28;20323;-44
2023/08/12 11:42:14;;;;;;;12.33;11.73;;;31.10;43.80;;;;;;5036094;28;20231;-45
2023/08/12 11:44:43;;;;;;;12.23;11.70;;;31.30;43.60;;;;;;5037891;28;20178;-46
2023/08/12 11:47:08;;;;;;;13.10;12.50;;;31.60;43.20;;;;;;5019960;28;20439;-47
2023/08/12 11:49:34;;;;;;;12.97;12.37;;;31.70;43.40;;;;;;5038242;28;20724;-48
2023/08/12 11:52:00;;;;;;;13.00;12.50;;;31.90;42.50;;;;;;5037953;28;20495;-47
2023/08/12 11:54:26;;;;;;;13.07;12.43;;;31.70;41.90;;;;;;5015923;28;21023;-44
2023/08/12 11:56:52;;;;;;;13.30;12.70;;;31.70;43.00;;;;;;5038300;28;20957;-46
2023/08/12 11:59:18;;;;;;;12.97;12.23;;;31.50;41.90;;;;;;5037741;28;20825;-46
2023/08/12 12:01:48;;;;;;;11.93;11.33;;;31.60;42.30;;;;;;5035222;28;20210;-49
2023/08/12 12:04:14;;;;;;;13.57;12.87;;;31.40;41.50;;;;;;5039610;28;20220;-44
2023/08/12 12:06:40;;;;;;;13.57;12.97;;;31.20;41.40;;;;;;5042727;28;20470;-46
2023/08/12 12:09:11;;;;;;;13.97;13.20;;;31.30;41.90;;;;;;5040954;28;20523;-44
2023/08/12 12:11:38;;;;;;;13.80;13.20;;;31.30;42.60;;;;;;5040679;28;20477;-51
2023/08/12 12:14:04;;;;;;;13.47;12.80;;;31.80;42.60;;;;;;5023810;28;20444;-42
2023/08/12 12:16:41;;;;;;;13.10;12.50;;;32.50;41.30;;;;;;5042016;28;20439;-43
2023/08/12 12:19:17;;;;;;;14.43;13.40;;;33.10;41.00;;;;;;5042269;28;20439;-47
2023/08/12 12:21:45;;;;;;;13.73;12.93;;;33.80;38.70;;;;;;5039679;28;20471;-48
2023/08/12 12:24:11;;;;;;;13.60;12.80;;;34.20;37.80;;;;;;5040717;28;21057;-43